Time;durP1;ratioP1;P1;durP2;ratioP2;P2;SDS_P1;SDS_P2;PMS_P1;PMS_P2;Temp;Humidity;BMP_temperature;BMP_pressure;BME280_temperature;BME280_humidity;BME280_pressure;Samples;Min_cycle;Max_cycle;Signal;HPM_P1;HPM_P2
2022/06/12 00:00:54;;;;;;;9.25;4.72;;;;;;;24.71;47.31;99353.91;5135548;27;20031;-68
2022/06/12 00:03:23;;;;;;;6.25;4.50;;;;;;;24.70;47.26;99354.13;5134806;27;20441;-69
2022/06/12 00:05:51;;;;;;;8.15;4.38;;;;;;;24.66;47.60;99356.41;5121269;27;20035;-69
2022/06/12 00:08:17;;;;;;;7.55;4.88;;;;;;;24.63;47.83;99354.94;5095824;28;20498;-69
2022/06/12 00:10:45;;;;;;;6.40;5.03;;;;;;;24.60;47.67;99350.00;5114226;28;20032;-69
2022/06/12 00:13:13;;;;;;;7.05;4.50;;;;;;;24.61;47.63;99359.78;5114049;28;20059;-69
2022/06/12 00:15:39;;;;;;;9.90;4.97;;;;;;;24.60;47.69;99355.41;5114081;28;20501;-69
2022/06/12 00:18:05;;;;;;;6.68;4.75;;;;;;;24.62;47.56;99363.28;5120545;27;20027;-69
2022/06/12 00:20:32;;;;;;;9.45;4.63;;;;;;;24.60;47.82;99358.13;5134753;27;20087;-69
2022/06/12 00:22:58;;;;;;;6.53;4.60;;;;;;;24.60;47.76;99352.69;5134449;27;20103;-69
2022/06/12 00:25:27;;;;;;;8.50;5.40;;;;;;;24.59;47.93;99345.63;5123532;27;20028;-69
2022/06/12 00:27:52;;;;;;;7.93;4.95;;;;;;;24.59;47.55;99342.94;5113627;28;20051;-69
2022/06/12 00:30:21;;;;;;;7.53;5.10;;;;;;;24.60;47.56;99344.59;5133387;27;20053;-69
2022/06/12 00:32:52;;;;;;;7.85;4.82;;;;;;;24.64;47.33;99350.38;5134315;27;20035;-69
2022/06/12 00:35:23;;;;;;;11.57;4.72;;;;;;;24.64;47.73;99348.50;5127344;27;20031;-69
2022/06/12 00:37:49;;;;;;;;;;;;;;;24.60;47.74;99349.16;5115505;27;20023;-69
2022/06/12 00:40:15;;;;;;;9.27;4.50;;;;;;;24.58;47.65;99343.97;5128330;27;20275;-69
2022/06/12 00:42:51;;;;;;;6.07;4.35;;;;;;;24.57;47.94;99355.84;5134331;27;20027;-69
2022/06/12 00:45:38;;;;;;;5.93;4.45;;;;;;;24.55;47.51;99349.81;5134722;27;20437;-69
2022/06/12 00:48:23;;;;;;;7.78;4.20;;;;;;;24.55;47.90;99349.00;5118993;27;20043;-69
2022/06/12 00:50:55;;;;;;;5.57;3.97;;;;;;;24.52;47.97;99351.09;5113369;27;20122;-69
2022/06/12 00:53:27;;;;;;;9.52;4.57;;;;;;;24.51;47.60;99354.00;5113373;28;20031;-69
2022/06/12 00:56:14;;;;;;;9.60;4.78;;;;;;;24.48;48.15;99341.75;5113746;28;20039;-69
2022/06/12 00:58:44;;;;;;;8.15;5.18;;;;;;;24.46;47.97;99345.72;5114734;28;20036;-68
2022/06/12 01:01:36;;;;;;;8.82;4.53;;;;;;;24.42;48.38;99341.78;5112932;28;20031;-68
2022/06/12 01:06:50;;;;;;;7.18;4.40;;;;;;;24.38;48.43;99342.22;5113730;28;20037;-69
2022/06/12 01:09:22;;;;;;;7.80;5.10;;;;;;;24.40;48.14;99343.88;5133763;27;20035;-69
2022/06/12 01:11:51;;;;;;;7.70;4.15;;;;;;;24.40;48.23;99350.13;5126477;27;20043;-69
2022/06/12 01:14:21;;;;;;;7.25;4.75;;;;;;;24.38;48.17;99352.22;5113099;28;20039;-70
2022/06/12 01:16:48;;;;;;;8.40;4.47;;;;;;;24.41;48.16;99356.34;5113006;28;20058;-69
2022/06/12 01:19:34;;;;;;;4.68;4.18;;;;;;;24.41;48.25;99367.16;5129596;27;20466;-69
2022/06/12 01:22:34;;;;;;;9.40;5.07;;;;;;;24.39;48.39;99367.38;5125044;27;20059;-69
2022/06/12 01:25:36;;;;;;;7.05;4.57;;;;;;;24.36;48.60;99360.50;5113210;28;20074;-69
2022/06/12 01:28:23;;;;;;;8.00;4.90;;;;;;;24.35;48.41;99366.16;5112332;28;20052;-69
2022/06/12 01:30:57;;;;;;;6.03;3.85;;;;;;;24.34;48.42;99359.91;5112057;28;20031;-69
2022/06/12 01:33:35;;;;;;;6.88;4.57;;;;;;;24.33;48.61;99358.25;5114493;28;20037;-69
2022/06/12 01:36:20;;;;;;;5.60;3.85;;;;;;;24.33;48.79;99354.72;5112879;28;20465;-69
2022/06/12 01:39:10;;;;;;;5.30;3.78;;;;;;;24.32;48.41;99353.91;5112743;28;20031;-69
2022/06/12 01:42:07;;;;;;;6.43;4.38;;;;;;;24.31;48.48;99354.94;5112006;28;20031;-69
2022/06/12 01:45:10;;;;;;;7.03;4.50;;;;;;;24.29;48.62;99353.47;5089822;28;20100;-69
2022/06/12 01:47:46;;;;;;;8.45;4.78;;;;;;;24.30;48.74;99358.69;5112325;28;20498;-69
2022/06/12 01:50:34;;;;;;;6.28;4.35;;;;;;;24.30;48.86;99364.09;5112716;28;20035;-69
2022/06/12 01:53:17;;;;;;;5.38;3.67;;;;;;;24.29;48.87;99353.47;5112094;28;20031;-69
2022/06/12 01:55:45;;;;;;;6.97;4.68;;;;;;;24.28;49.03;99352.66;5112624;28;20371;-69
2022/06/12 01:58:23;;;;;;;5.70;3.95;;;;;;;24.28;48.83;99349.97;5112458;28;20031;-69
2022/06/12 02:01:01;;;;;;;4.75;4.03;;;;;;;24.26;48.72;99351.22;5112729;28;20032;-70
2022/06/12 02:03:38;;;;;;;9.45;5.68;;;;;;;24.26;48.60;99362.06;5112484;28;20303;-69
2022/06/12 02:06:18;;;;;;;7.85;4.20;;;;;;;24.28;49.02;99365.34;5112533;28;20024;-69
2022/06/12 02:08:55;;;;;;;5.95;4.60;;;;;;;24.27;48.75;99359.13;5131166;28;20034;-69
2022/06/12 02:14:18;;;;;;;5.28;4.13;;;;;;;24.26;49.10;99368.28;5115242;28;20167;-70
2022/06/12 02:16:47;;;;;;;5.78;3.83;;;;;;;24.27;48.89;99369.09;5116006;28;20118;-70
2022/06/12 02:19:19;;;;;;;4.70;3.95;;;;;;;24.27;49.10;99366.38;5116551;28;20424;-70
2022/06/12 02:21:52;;;;;;;5.15;3.78;;;;;;;24.27;48.63;99369.09;5115623;28;20063;-69
2022/06/12 02:24:25;;;;;;;6.97;4.43;;;;;;;24.26;48.92;99362.88;5116223;28;20032;-70
2022/06/12 02:27:00;;;;;;;6.95;4.35;;;;;;;24.26;48.68;99362.88;5115694;28;20060;-70
2022/06/12 02:29:35;;;;;;;7.00;4.45;;;;;;;24.28;48.94;99365.34;5126995;27;20038;-70
2022/06/12 02:32:10;;;;;;;6.95;4.22;;;;;;;24.27;48.69;99367.22;5132389;27;20115;-70
2022/06/12 02:34:42;;;;;;;6.05;4.30;;;;;;;24.26;48.81;99368.28;5116029;28;20074;-69
2022/06/12 02:37:15;;;;;;;4.85;3.70;;;;;;;24.27;48.67;99369.94;5115990;28;20034;-70
2022/06/12 02:39:45;;;;;;;7.72;4.63;;;;;;;24.27;48.64;99367.22;5115800;28;20023;-70
2022/06/12 02:42:23;;;;;;;5.55;4.18;;;;;;;24.27;48.96;99359.13;5115566;27;20031;-70
2022/06/12 02:45:15;;;;;;;6.35;4.43;;;;;;;24.27;48.97;99372.63;5115921;28;20036;-70
2022/06/12 02:47:42;;;;;;;6.65;4.57;;;;;;;24.26;49.08;99373.69;5109864;28;20050;-70
2022/06/12 02:50:09;;;;;;;6.10;3.88;;;;;;;24.25;48.95;99366.59;5115784;28;20516;-70
2022/06/12 02:52:57;;;;;;;5.43;4.13;;;;;;;24.29;49.03;99372.41;5122259;27;20047;-70
2022/06/12 02:55:23;;;;;;;7.45;4.05;;;;;;;24.27;49.08;99375.34;5135005;27;20031;-70
2022/06/12 02:58:12;;;;;;;5.28;4.13;;;;;;;24.27;48.67;99359.13;5129917;27;20039;-70
2022/06/12 03:00:47;;;;;;;5.32;3.80;;;;;;;24.28;48.78;99368.03;5104614;28;20047;-70
2022/06/12 03:03:24;;;;;;;7.75;4.63;;;;;;;24.28;49.10;99374.28;5115212;28;20577;-70
2022/06/12 03:05:57;;;;;;;7.07;4.28;;;;;;;24.30;49.28;99376.78;5116333;28;20373;-71
2022/06/12 03:08:26;;;;;;;7.32;4.38;;;;;;;24.31;49.06;99375.72;5114558;28;20065;-70
2022/06/12 03:10:56;;;;;;;8.98;4.68;;;;;;;24.30;48.94;99380.31;5115677;28;20036;-70
2022/06/12 03:13:25;;;;;;;7.53;4.17;;;;;;;24.32;48.60;99377.41;5115236;28;20035;-71
2022/06/12 03:16:08;;;;;;;6.47;4.80;;;;;;;24.33;48.80;99374.50;5115241;28;20043;-70
2022/06/12 03:18:38;;;;;;;7.57;4.85;;;;;;;24.35;49.03;99382.38;5123504;27;20043;-70
2022/06/12 03:21:25;;;;;;;5.28;3.83;;;;;;;24.35;48.53;99380.47;5135737;27;20035;-71
2022/06/12 03:24:00;;;;;;;6.72;4.18;;;;;;;24.37;48.95;99380.28;5135898;27;20038;-70
2022/06/12 03:26:41;;;;;;;6.72;4.88;;;;;;;24.40;48.85;99379.88;5134693;27;20062;-70
2022/06/12 03:29:18;;;;;;;6.93;4.95;;;;;;;24.43;48.62;99384.81;5125297;27;20035;-70
2022/06/12 03:32:00;;;;;;;9.07;4.45;;;;;;;24.47;48.11;99382.53;5135828;27;20031;-70
2022/06/12 03:34:30;;;;;;;8.82;5.03;;;;;;;24.51;48.01;99383.75;5136072;27;20513;-70
2022/06/12 03:37:31;;;;;;;7.97;4.40;;;;;;;24.58;48.63;99386.41;5132748;27;20457;-71
2022/06/12 03:40:17;;;;;;;5.80;4.35;;;;;;;24.65;48.14;99393.44;5114536;28;20035;-71
2022/06/12 03:42:57;;;;;;;7.40;5.32;;;;;;;24.72;48.29;99387.19;5114261;28;20035;-71
2022/06/12 03:45:27;;;;;;;8.95;5.70;;;;;;;24.77;48.14;99390.91;5114978;28;20040;-70
2022/06/12 03:48:12;;;;;;;7.90;4.95;;;;;;;24.84;48.01;99385.47;5114314;28;20051;-71
2022/06/12 03:50:44;;;;;;;9.40;6.00;;;;;;;24.89;48.11;99391.06;5116098;27;20475;-71
2022/06/12 03:53:22;;;;;;;9.25;6.07;;;;;;;24.91;47.64;99398.94;5115778;27;20122;-71
2022/06/12 03:59:05;;;;;;;11.95;6.72;;;;;;;24.87;47.30;99387.72;5127248;27;20529;-71
2022/06/12 04:01:31;;;;;;;10.90;5.55;;;;;;;24.87;47.71;99389.59;5131648;27;20031;-71
2022/06/12 04:03:59;;;;;;;11.20;6.88;;;;;;;24.88;47.61;99389.38;5116423;27;20512;-71
2022/06/12 04:06:29;;;;;;;9.93;5.18;;;;;;;24.88;47.40;99389.38;5115427;27;20035;-72
2022/06/12 04:09:00;;;;;;;13.07;7.97;;;;;;;24.93;47.07;99394.94;5131579;27;20062;-71
2022/06/12 04:11:28;;;;;;;14.27;7.50;;;;;;;24.94;47.42;99399.31;5134611;27;20042;-69
2022/06/12 04:13:56;;;;;;;8.50;6.35;;;;;;;24.94;47.26;99393.91;5114184;27;20046;-70
2022/06/12 04:16:45;;;;;;;10.27;7.32;;;;;;;24.92;47.02;99395.19;5114293;28;20063;-69
2022/06/12 04:19:19;;;;;;;11.13;7.60;;;;;;;24.91;47.07;99397.06;5129307;27;20027;-69
2022/06/12 04:21:59;;;;;;;11.25;7.30;;;;;;;24.90;46.82;99398.13;5134710;27;20034;-69
2022/06/12 04:24:45;;;;;;;8.02;6.30;;;;;;;24.89;46.83;99398.31;5113713;27;20073;-69
2022/06/12 04:27:22;;;;;;;7.60;5.97;;;;;;;24.88;46.98;99402.91;5112871;27;20529;-69
2022/06/12 04:29:55;;;;;;;9.07;6.13;;;;;;;24.87;46.72;99403.97;5113789;28;20047;-69
2022/06/12 04:32:21;;;;;;;12.00;5.97;;;;;;;24.86;46.58;99394.19;5113846;28;20055;-69
2022/06/12 04:34:48;;;;;;;8.77;6.47;;;;;;;24.86;46.65;99393.34;5113763;28;20099;-69
2022/06/12 04:37:31;;;;;;;9.43;6.10;;;;;;;24.89;46.82;99395.63;5114424;27;20031;-69
2022/06/12 04:39:59;;;;;;;9.13;7.13;;;;;;;24.88;46.64;99397.50;5113528;28;20058;-68
2022/06/12 04:42:27;;;;;;;8.25;5.82;;;;;;;24.88;46.43;99394.81;5113338;28;20028;-69
2022/06/12 04:44:53;;;;;;;10.25;6.47;;;;;;;24.87;46.47;99395.84;5113788;28;20401;-69
2022/06/12 04:47:23;;;;;;;9.43;5.85;;;;;;;24.88;46.19;99385.84;5113142;28;20409;-69
2022/06/12 04:49:49;;;;;;;13.13;6.70;;;;;;;24.87;46.54;99398.56;5113429;28;20123;-69
2022/06/12 04:52:16;;;;;;;8.60;6.10;;;;;;;24.88;46.52;99389.38;5113273;28;20092;-69
2022/06/12 04:54:45;;;;;;;9.93;6.57;;;;;;;24.90;46.07;99389.16;5113728;28;20038;-69
2022/06/12 04:57:12;;;;;;;9.35;5.95;;;;;;;24.94;46.03;99393.09;5113278;28;20031;-70
2022/06/12 04:59:39;;;;;;;15.75;8.57;;;;;;;24.98;46.27;99392.44;5113523;28;20489;-70
2022/06/12 05:02:05;;;;;;;7.85;6.20;;;;;;;25.02;45.86;99390.09;5112902;28;20051;-70
2022/06/12 05:04:32;;;;;;;8.60;7.05;;;;;;;25.01;45.82;99390.34;5113247;28;20027;-70
2022/06/12 05:06:58;;;;;;;11.07;6.85;;;;;;;25.02;46.01;99395.53;5115790;27;20063;-69
2022/06/12 05:09:28;;;;;;;11.57;7.22;;;;;;;25.03;45.83;99399.88;5133782;27;20080;-69
2022/06/12 05:11:55;;;;;;;9.68;6.97;;;;;;;25.03;45.68;99404.50;5133622;27;20034;-69
2022/06/12 05:14:21;;;;;;;9.57;6.75;;;;;;;25.02;45.89;99400.94;5132287;27;20056;-69
2022/06/12 05:16:53;;;;;;;8.40;6.18;;;;;;;25.05;45.77;99410.50;5119444;27;20056;-69
2022/06/12 05:19:21;;;;;;;7.47;5.95;;;;;;;25.04;45.61;99411.56;5113278;28;20031;-71
2022/06/12 05:21:47;;;;;;;7.78;6.22;;;;;;;25.06;45.71;99414.88;5114256;27;20118;-70
2022/06/12 05:24:13;;;;;;;7.68;6.30;;;;;;;25.05;45.74;99410.50;5113207;28;20042;-70
2022/06/12 05:26:40;;;;;;;9.02;6.68;;;;;;;25.07;45.55;99411.94;5112911;28;20138;-70
2022/06/12 05:29:11;;;;;;;9.13;6.88;;;;;;;25.11;45.58;99412.31;5123351;28;20042;-69
2022/06/12 05:31:36;;;;;;;12.02;7.78;;;;;;;25.09;45.38;99415.25;5130536;28;20031;-70
2022/06/12 05:34:02;;;;;;;11.07;7.35;;;;;;;25.09;45.37;99409.00;5113018;28;20051;-69
2022/06/12 05:36:28;;;;;;;11.50;7.88;;;;;;;25.11;45.38;99415.88;5112443;28;20027;-70
2022/06/12 05:38:54;;;;;;;15.40;7.75;;;;;;;25.14;44.92;99411.91;5112862;28;20030;-70
2022/06/12 05:41:20;;;;;;;10.43;6.38;;;;;;;25.16;44.86;99408.97;5113062;28;20387;-70
2022/06/12 05:43:46;;;;;;;8.95;6.45;;;;;;;25.17;45.18;99413.31;5112657;28;20044;-70
2022/06/12 05:46:14;;;;;;;15.90;6.32;;;;;;;25.19;44.86;99403.94;5112877;28;20471;-70
2022/06/12 05:48:40;;;;;;;6.43;5.10;;;;;;;25.29;44.77;99409.69;5114288;28;20081;-70
2022/06/12 05:51:07;;;;;;;8.50;5.97;;;;;;;25.39;44.57;99406.50;5118417;27;20062;-70
2022/06/12 05:53:35;;;;;;;6.88;5.90;;;;;;;25.43;44.05;99410.47;5117305;28;20110;-70
2022/06/12 05:56:01;;;;;;;7.45;5.10;;;;;;;25.53;43.52;99415.34;5117280;28;20032;-70
2022/06/12 05:58:29;;;;;;;9.38;5.45;;;;;;;25.63;43.61;99419.44;5117066;28;20027;-70
2022/06/12 06:00:55;;;;;;;6.10;5.13;;;;;;;25.72;42.94;99409.97;5116704;28;20028;-69
2022/06/12 06:03:21;;;;;;;5.90;4.82;;;;;;;25.80;42.86;99409.69;5116147;27;20024;-71
2022/06/12 06:05:49;;;;;;;9.02;4.22;;;;;;;25.87;42.74;99404.19;5118196;27;20517;-70
2022/06/12 06:08:16;;;;;;;7.03;4.57;;;;;;;25.93;42.76;99414.13;5117513;27;20035;-71
2022/06/12 06:10:42;;;;;;;6.18;4.70;;;;;;;25.98;42.65;99402.59;5117631;27;20066;-71
2022/06/12 06:13:08;;;;;;;10.13;4.80;;;;;;;26.01;42.41;99411.13;5117521;27;20046;-71
2022/06/12 06:15:34;;;;;;;8.82;4.68;;;;;;;26.00;42.49;99397.78;5117045;28;20027;-70
2022/06/12 06:18:00;;;;;;;4.80;4.20;;;;;;;26.05;42.27;99403.38;5116853;27;20500;-71
2022/06/12 06:20:34;;;;;;;6.53;4.82;;;;;;;26.06;42.60;99407.75;5116545;28;20425;-71
2022/06/12 06:22:59;;;;;;;8.50;4.75;;;;;;;26.07;42.52;99406.69;5116254;28;20453;-70
2022/06/12 06:25:27;;;;;;;7.57;5.25;;;;;;;26.05;42.34;99400.66;5116302;28;20110;-70
2022/06/12 06:27:53;;;;;;;7.35;4.88;;;;;;;26.04;42.35;99404.41;5115481;28;20052;-70
2022/06/12 06:30:21;;;;;;;9.35;4.90;;;;;;;26.03;42.56;99402.75;5123925;27;20055;-70
2022/06/12 06:32:46;;;;;;;5.63;4.80;;;;;;;26.03;42.37;99397.34;5115705;28;20043;-70
2022/06/12 06:35:12;;;;;;;8.70;4.63;;;;;;;26.02;42.56;99390.25;5116224;28;20040;-70
2022/06/12 06:37:39;;;;;;;9.27;5.15;;;;;;;25.98;42.65;99384.47;5115986;28;20035;-70
2022/06/12 06:40:07;;;;;;;6.78;5.43;;;;;;;25.98;42.69;99383.63;5115946;28;20032;-70
2022/06/12 06:42:34;;;;;;;6.40;4.80;;;;;;;25.99;42.49;99386.13;5115561;27;20403;-69
2022/06/12 06:47:43;;;;;;;6.28;4.60;;;;;;;25.97;42.65;99380.09;5116372;28;20038;-69
2022/06/12 06:50:12;;;;;;;6.80;5.38;;;;;;;25.98;42.74;99370.91;5115859;28;20114;-70
2022/06/12 06:52:37;;;;;;;8.05;5.70;;;;;;;25.97;42.68;99371.13;5115421;27;20504;-70
2022/06/12 06:55:04;;;;;;;7.00;5.20;;;;;;;26.00;42.61;99370.69;5115480;27;20122;-70
2022/06/12 06:57:29;;;;;;;7.13;5.18;;;;;;;26.00;42.71;99362.53;5116328;27;20075;-70
2022/06/12 06:59:55;;;;;;;8.90;4.72;;;;;;;26.00;42.43;99367.97;5116606;27;20122;-71
2022/06/12 07:02:20;;;;;;;6.75;4.38;;;;;;;26.00;42.56;99366.09;5123966;27;20044;-69
2022/06/12 07:04:46;;;;;;;7.07;4.85;;;;;;;26.01;42.70;99370.47;5115649;28;20027;-70
2022/06/12 07:07:12;;;;;;;8.43;4.90;;;;;;;26.01;42.49;99370.47;5115899;27;20035;-70
2022/06/12 07:09:40;;;;;;;5.68;4.85;;;;;;;26.00;42.54;99366.09;5117190;27;20042;-70
2022/06/12 07:12:06;;;;;;;7.70;5.15;;;;;;;26.00;42.51;99374.22;5115370;28;20039;-70
2022/06/12 07:14:32;;;;;;;7.28;4.55;;;;;;;25.99;42.32;99366.31;5115256;28;20084;-70
2022/06/12 07:16:58;;;;;;;7.47;4.38;;;;;;;25.96;42.26;99364.88;5114856;28;20035;-70
2022/06/12 07:19:25;;;;;;;7.70;4.80;;;;;;;25.98;42.26;99361.94;5118148;27;20039;-69
2022/06/12 07:21:51;;;;;;;5.93;4.47;;;;;;;25.97;42.19;99360.28;5115221;28;20394;-70
2022/06/12 07:24:16;;;;;;;5.63;4.55;;;;;;;25.98;42.28;99361.94;5114900;28;20046;-70
2022/06/12 07:26:45;;;;;;;5.70;4.60;;;;;;;25.97;42.29;99363.84;5114354;28;20432;-70
2022/06/12 07:29:13;;;;;;;5.82;4.40;;;;;;;25.98;42.28;99364.66;5114908;28;20042;-70
2022/06/12 07:31:39;;;;;;;7.50;5.03;;;;;;;25.97;42.23;99360.28;5114930;28;20031;-70
2022/06/12 07:34:05;;;;;;;4.30;3.85;;;;;;;25.98;41.84;99359.22;5114760;28;20031;-71
2022/06/12 07:36:31;;;;;;;10.70;4.45;;;;;;;25.95;42.11;99362.41;5101383;27;20110;-70
2022/06/12 07:38:57;;;;;;;5.43;4.93;;;;;;;25.94;42.03;99361.56;5118295;27;20096;-70
2022/06/12 07:41:23;;;;;;;5.45;4.50;;;;;;;25.94;41.83;99356.16;5135294;27;20439;-70
2022/06/12 07:43:49;;;;;;;8.07;4.72;;;;;;;25.97;41.84;99360.28;5128084;27;20047;-69
2022/06/12 07:46:17;;;;;;;6.75;4.28;;;;;;;25.96;41.94;99358.63;5113991;27;20049;-70
2022/06/12 07:48:44;;;;;;;6.80;4.65;;;;;;;25.97;41.89;99352.16;5114651;28;20031;-70
2022/06/12 07:51:13;;;;;;;8.77;6.18;;;;;;;25.97;41.98;99361.13;5114514;28;20031;-70
2022/06/12 07:53:39;;;;;;;5.20;4.70;;;;;;;25.97;41.70;99354.84;5115103;28;20524;-70
2022/06/12 07:56:07;;;;;;;6.32;4.85;;;;;;;25.97;42.07;99354.84;5113652;28;20072;-70
2022/06/12 07:58:33;;;;;;;7.15;4.18;;;;;;;25.95;41.34;99351.56;5114181;28;20035;-70
2022/06/12 08:01:02;;;;;;;7.05;4.35;;;;;;;25.97;41.27;99360.28;5114033;28;20428;-73
2022/06/12 08:03:30;;;;;;;10.00;4.35;;;;;;;25.93;41.43;99349.06;5114215;28;20036;-71
2022/06/12 08:05:55;;;;;;;11.73;4.47;;;;;;;25.92;41.28;99343.88;5113815;28;20486;-71
2022/06/12 08:08:21;;;;;;;6.88;4.18;;;;;;;25.92;41.20;99349.31;5124630;27;20045;-71
2022/06/12 08:10:46;;;;;;;8.07;4.45;;;;;;;25.89;41.46;99348.69;5134220;27;20167;-70
2022/06/12 08:13:12;;;;;;;9.75;4.50;;;;;;;25.88;41.34;99347.03;5116614;27;20031;-71
2022/06/12 08:15:40;;;;;;;6.22;4.18;;;;;;;25.89;41.36;99351.41;5114190;28;20039;-71
2022/06/12 08:18:06;;;;;;;4.95;4.07;;;;;;;25.88;41.39;99349.75;5114079;28;20027;-71
2022/06/12 08:20:35;;;;;;;8.35;4.25;;;;;;;25.89;41.35;99340.56;5114244;28;20467;-70
2022/06/12 08:23:26;;;;;;;5.38;4.30;;;;;;;25.90;41.55;99342.22;5113662;28;20088;-71
2022/06/12 08:26:13;;;;;;;9.30;4.60;;;;;;;25.90;41.50;99339.53;5113989;28;20076;-71
2022/06/12 08:28:48;;;;;;;8.13;4.07;;;;;;;25.93;41.37;99338.22;5120700;27;20170;-70
2022/06/12 08:31:18;;;;;;;5.95;4.05;;;;;;;25.95;41.19;99338.03;5134519;27;20038;-70
2022/06/12 08:33:46;;;;;;;6.05;4.20;;;;;;;25.94;41.53;99334.47;5119098;27;20114;-71
2022/06/12 08:36:14;;;;;;;4.05;3.65;;;;;;;25.97;41.23;99334.00;5113644;28;20038;-70
2022/06/12 08:38:41;;;;;;;7.30;4.07;;;;;;;25.99;41.21;99331.91;5113406;28;20031;-70
2022/06/12 08:41:07;;;;;;;5.47;3.60;;;;;;;25.99;41.17;99329.19;5113266;28;20557;-71
2022/06/12 08:43:49;;;;;;;4.05;3.53;;;;;;;25.98;41.13;99330.25;5113484;28;20039;-70
2022/06/12 08:46:27;;;;;;;5.18;3.45;;;;;;;25.95;41.18;99325.28;5112984;28;20032;-71
2022/06/12 08:49:05;;;;;;;6.40;3.47;;;;;;;25.95;40.94;99319.84;5113427;28;20049;-71
2022/06/12 08:51:42;;;;;;;3.75;3.17;;;;;;;25.96;41.10;99326.09;5113228;28;20028;-71
2022/06/12 08:54:15;;;;;;;7.20;3.25;;;;;;;25.95;40.83;99319.84;5113421;28;20039;-70
2022/06/12 08:56:49;;;;;;;4.28;3.40;;;;;;;25.96;40.36;99331.50;5112899;28;20110;-71
2022/06/12 08:59:30;;;;;;;8.43;3.78;;;;;;;25.92;40.07;99331.16;5113909;28;20508;-71
2022/06/12 09:01:56;;;;;;;8.75;3.25;;;;;;;25.92;39.93;99320.31;5114507;27;20054;-71
2022/06/12 09:04:25;;;;;;;4.75;2.97;;;;;;;25.94;39.70;99325.53;5106617;27;20039;-72
2022/06/12 09:07:26;;;;;;;3.45;3.15;;;;;;;25.91;39.45;99326.78;5133715;27;20035;-71
2022/06/12 09:09:58;;;;;;;3.60;2.95;;;;;;;25.89;39.58;99318.03;5086082;28;20046;-69
2022/06/12 09:12:49;;;;;;;4.45;3.47;;;;;;;25.87;39.74;99314.75;5112900;28;20035;-70
2022/06/12 09:15:41;;;;;;;4.20;3.20;;;;;;;25.85;39.42;99320.38;5113395;28;20042;-70
2022/06/12 09:18:19;;;;;;;3.95;3.55;;;;;;;25.84;39.12;99316.03;5118456;27;20031;-70
2022/06/12 09:21:06;;;;;;;6.22;2.97;;;;;;;25.84;39.72;99313.31;5134099;27;20167;-70
2022/06/12 09:23:44;;;;;;;4.55;2.72;;;;;;;25.83;39.76;99319.78;5113929;28;20083;-70
2022/06/12 09:26:23;;;;;;;6.72;2.78;;;;;;;25.84;39.72;99315.22;5112942;28;20042;-70
2022/06/12 09:28:53;;;;;;;8.98;3.58;;;;;;;25.84;39.50;99318.72;5121460;28;20385;-71
2022/06/12 09:31:24;;;;;;;;;;;;;;;25.78;39.60;99322.38;5114193;28;20035;-68
2022/06/12 09:34:07;;;;;;;3.97;3.03;;;;;;;25.81;39.69;99313.75;5112796;28;20365;-71
2022/06/12 09:36:54;;;;;;;3.72;2.70;;;;;;;25.82;39.88;99310.00;5113086;28;20031;-68
2022/06/12 09:39:30;;;;;;;3.00;2.70;;;;;;;25.84;39.65;99304.38;5119487;28;20031;-69
2022/06/12 09:42:21;;;;;;;6.05;3.22;;;;;;;25.84;39.98;99310.59;5112981;28;20092;-69
2022/06/12 09:45:30;;;;;;;4.55;3.28;;;;;;;25.84;39.96;99301.66;5112926;28;20027;-69
2022/06/12 09:48:29;;;;;;;8.02;4.53;;;;;;;25.85;40.04;99298.72;5090675;28;20093;-69
2022/06/12 09:51:09;;;;;;;3.45;2.70;;;;;;;25.87;40.10;99296.59;5112549;28;20039;-69
2022/06/12 09:54:14;;;;;;;6.30;3.40;;;;;;;25.88;40.19;99295.53;5112294;28;20118;-69
2022/06/12 09:56:54;;;;;;;6.63;2.92;;;;;;;25.86;40.10;99303.06;5110611;28;20043;-69
2022/06/12 09:59:29;;;;;;;4.88;2.78;;;;;;;25.88;40.10;99300.97;5112805;28;20023;-68
2022/06/12 10:01:59;;;;;;;3.83;2.80;;;;;;;25.88;40.17;99298.25;5112830;28;20457;-69
2022/06/12 10:04:40;;;;;;;4.05;3.15;;;;;;;25.88;40.35;99290.13;5113291;28;20030;-69
2022/06/12 10:07:12;;;;;;;5.47;3.55;;;;;;;25.88;40.39;99281.19;5115627;28;20027;-69
2022/06/12 10:09:44;;;;;;;8.38;3.72;;;;;;;25.88;40.31;99281.19;5121050;28;20031;-68
2022/06/12 10:12:24;;;;;;;6.75;4.20;;;;;;;25.87;40.64;99283.06;5112195;28;20088;-70
2022/06/12 10:14:54;;;;;;;6.07;4.40;;;;;;;25.87;40.69;99285.75;5113228;28;20084;-69
2022/06/12 10:17:39;;;;;;;4.63;4.00;;;;;;;25.87;40.81;99280.34;5112822;28;20409;-68
2022/06/12 10:20:20;;;;;;;6.57;3.60;;;;;;;25.87;40.51;99284.94;5112822;28;20047;-69
2022/06/12 10:22:49;;;;;;;5.47;3.20;;;;;;;25.87;40.77;99282.22;5112255;28;20023;-70
2022/06/12 10:25:19;;;;;;;6.68;3.22;;;;;;;25.87;40.71;99280.34;5112801;28;20066;-69
2022/06/12 10:28:17;;;;;;;9.00;3.83;;;;;;;25.87;40.64;99271.41;5112795;28;20387;-69
2022/06/12 10:31:04;;;;;;;8.43;3.17;;;;;;;25.85;40.55;99271.59;5105265;28;20138;-69
2022/06/12 10:33:56;;;;;;;5.45;2.63;;;;;;;25.86;40.63;99278.69;5106508;28;20042;-69
2022/06/12 10:36:30;;;;;;;5.55;3.50;;;;;;;25.86;40.76;99267.84;5116349;28;20062;-69
2022/06/12 10:39:11;;;;;;;6.95;2.85;;;;;;;25.87;40.67;99268.69;5115946;28;20024;-69
2022/06/12 10:41:48;;;;;;;3.38;2.45;;;;;;;25.87;40.89;99258.66;5116776;28;20023;-69
2022/06/12 10:44:28;;;;;;;4.40;2.50;;;;;;;25.88;40.45;99268.44;5116027;28;20035;-69
2022/06/12 10:46:53;;;;;;;4.57;3.08;;;;;;;25.89;40.69;99258.41;5115322;28;20032;-69
2022/06/12 10:49:24;;;;;;;6.03;3.15;;;;;;;25.90;40.76;99258.22;5116216;28;20035;-69
2022/06/12 10:51:51;;;;;;;7.07;3.17;;;;;;;25.90;40.45;99263.63;5115538;28;20073;-69
2022/06/12 10:54:19;;;;;;;4.45;2.97;;;;;;;25.91;40.48;99264.44;5116051;28;20027;-69
2022/06/12 10:57:05;;;;;;;4.72;2.63;;;;;;;25.92;40.81;99254.44;5116387;27;20028;-68
2022/06/12 10:59:37;;;;;;;4.20;3.30;;;;;;;25.93;40.72;99250.69;5136564;27;20481;-69
2022/06/12 11:02:31;;;;;;;3.80;3.50;;;;;;;25.93;40.87;99250.69;5135860;27;20034;-68
2022/06/12 11:05:15;;;;;;;5.10;3.33;;;;;;;25.94;40.90;99252.34;5136075;27;20038;-68
2022/06/12 11:08:16;;;;;;;5.75;2.97;;;;;;;25.97;40.74;99241.00;5131860;27;20082;-68
2022/06/12 11:10:55;;;;;;;3.80;2.78;;;;;;;25.95;40.53;99232.31;5136490;27;20084;-68
2022/06/12 11:13:45;;;;;;;7.93;3.65;;;;;;;25.97;40.77;99241.00;5136044;27;20057;-68
2022/06/12 11:16:26;;;;;;;4.65;3.50;;;;;;;25.96;40.48;99240.19;5135816;27;20031;-69
2022/06/12 11:19:20;;;;;;;6.30;3.35;;;;;;;25.95;40.55;99235.03;5118731;27;20553;-69
2022/06/12 11:22:10;;;;;;;5.70;3.80;;;;;;;25.95;40.28;99240.44;5114578;28;20068;-68
2022/06/12 11:25:11;;;;;;;4.97;2.70;;;;;;;25.93;40.36;99232.53;5115397;28;20509;-68
2022/06/12 11:28:00;;;;;;;6.20;3.38;;;;;;;25.91;40.40;99229.19;5114602;28;20119;-68
2022/06/12 11:30:33;;;;;;;5.78;3.58;;;;;;;25.90;40.22;99228.41;5095260;28;20494;-69
2022/06/12 11:33:13;;;;;;;3.80;2.92;;;;;;;25.92;40.30;99227.34;5114315;28;20084;-69
2022/06/12 11:35:57;;;;;;;7.25;3.40;;;;;;;25.90;40.45;99222.13;5115602;28;20031;-68
2022/06/12 11:38:49;;;;;;;5.63;3.78;;;;;;;25.90;40.09;99219.41;5115173;28;20376;-69
2022/06/12 11:41:44;;;;;;;7.40;3.38;;;;;;;25.89;40.07;99224.03;5111579;28;20035;-69
2022/06/12 11:44:34;;;;;;;6.15;3.30;;;;;;;25.89;40.31;99206.91;5096717;28;20047;-69
2022/06/12 11:47:06;;;;;;;8.17;3.37;;;;;;;25.88;40.16;99208.81;5114862;28;20418;-68
2022/06/12 11:49:59;;;;;;;5.13;3.33;;;;;;;25.92;40.19;99213.78;5114581;28;20031;-68
2022/06/12 11:52:46;;;;;;;4.82;2.80;;;;;;;25.92;40.25;99217.31;5102896;28;20047;-68
2022/06/12 11:55:35;;;;;;;7.68;4.05;;;;;;;25.94;40.27;99211.69;5114627;28;20023;-68
2022/06/12 11:58:15;;;;;;;5.05;3.70;;;;;;;25.94;40.57;99204.34;5114619;28;20031;-70
2022/06/12 12:01:05;;;;;;;6.22;3.53;;;;;;;25.95;40.60;99197.88;5114434;28;20126;-68
2022/06/12 12:03:31;;;;;;;5.77;3.70;;;;;;;25.94;40.48;99200.84;5114555;28;20040;-68
2022/06/12 12:06:14;;;;;;;4.15;3.35;;;;;;;25.96;40.47;99196.81;5114466;28;20508;-68
2022/06/12 12:08:48;;;;;;;5.50;4.10;;;;;;;25.95;40.25;99191.66;5114367;28;20036;-69
2022/06/12 12:11:24;;;;;;;5.78;3.90;;;;;;;25.96;39.73;99191.41;5114159;28;20039;-69
2022/06/12 12:13:55;;;;;;;5.80;3.58;;;;;;;25.97;39.72;99181.38;5114111;28;20034;-69
2022/06/12 12:16:43;;;;;;;;;;;;;;;25.89;39.85;99188.78;5114804;28;20071;-69
2022/06/12 12:19:17;;;;;;;5.03;3.25;;;;;;;25.90;39.66;99179.59;5128132;27;19911;-69